createdAt,value
2022-09-20T00:01:13.207Z,101007.34
2022-09-20T00:03:42.874Z,101000.44
2022-09-20T00:06:14.651Z,100999.44
2022-09-20T00:08:41.818Z,100997.03
2022-09-20T00:11:11.391Z,100996.66
2022-09-20T00:13:39.601Z,101007.09
2022-09-20T00:16:08.928Z,101002.97
2022-09-20T00:18:36.154Z,101003.47
2022-09-20T00:21:05.172Z,100993.16
2022-09-20T00:23:32.149Z,101004.16
2022-09-20T00:26:01.255Z,101008.00
2022-09-20T00:28:29.096Z,101005.19
2022-09-20T00:30:56.505Z,100994.88
2022-09-20T00:33:25.085Z,100999.78
2022-09-20T00:35:51.704Z,101011.25
2022-09-20T00:38:18.309Z,100996.63
2022-09-20T00:40:45.337Z,100999.31
2022-09-20T00:43:18.735Z,100991.81
2022-09-20T00:45:49.449Z,100982.06
2022-09-20T00:48:27.693Z,100977.22
2022-09-20T00:51:08.965Z,100982.78
2022-09-20T00:53:43.769Z,100971.78
2022-09-20T00:56:19.645Z,100986.81
2022-09-20T00:59:04.628Z,100987.34
2022-09-20T01:01:32.145Z,100987.25
2022-09-20T01:03:59.881Z,100993.88
2022-09-20T01:06:26.778Z,100977.84
2022-09-20T01:08:56.387Z,100996.47
2022-09-20T01:11:23.034Z,100994.31
2022-09-20T01:13:49.674Z,100995.03
2022-09-20T01:16:18.029Z,100998.31
2022-09-20T01:18:45.795Z,101002.59
2022-09-20T01:21:13.501Z,100994.44
2022-09-20T01:24:18.490Z,101007.47
2022-09-20T01:27:10.832Z,101005.81
2022-09-20T01:29:53.011Z,101005.16
2022-09-20T01:32:23.924Z,100997.66
2022-09-20T01:34:58.186Z,100998.66
2022-09-20T01:37:28.041Z,101014.28
2022-09-20T01:40:23.960Z,101000.16
2022-09-20T01:43:13.889Z,101008.50
2022-09-20T01:45:46.784Z,100992.91
2022-09-20T01:48:37.723Z,101022.22
2022-09-20T01:51:20.996Z,101016.16
2022-09-20T01:53:50.493Z,101019.97
2022-09-20T01:56:22.806Z,101018.03
2022-09-20T01:59:22.767Z,101023.09
2022-09-20T02:02:01.401Z,101011.38
2022-09-20T02:04:49.669Z,101018.84
2022-09-20T02:07:47.792Z,101012.94
2022-09-20T02:10:35.887Z,101017.97
2022-09-20T02:13:29.279Z,101015.97
2022-09-20T02:16:17.084Z,101024.88
2022-09-20T02:18:56.660Z,101022.88
2022-09-20T02:21:42.314Z,101022.56
2022-09-20T02:24:11.460Z,101015.34
2022-09-20T02:27:02.745Z,101021.50
2022-09-20T02:29:53.950Z,101018.66
2022-09-20T02:32:45.297Z,101019.72
2022-09-20T02:35:42.806Z,101022.09
2022-09-20T02:38:18.329Z,101014.00
2022-09-20T02:41:05.597Z,101023.88
2022-09-20T02:43:51.758Z,101017.81
2022-09-20T02:46:28.629Z,101017.72
2022-09-20T02:49:44.906Z,101018.06
2022-09-20T02:52:23.322Z,101012.69
2022-09-20T02:55:16.871Z,101021.34
2022-09-20T02:58:07.620Z,101026.09
2022-09-20T03:00:48.450Z,101028.13
2022-09-20T03:03:32.920Z,101025.13
2022-09-20T03:06:38.732Z,101028.50
2022-09-20T03:09:17.247Z,101024.09
2022-09-20T03:11:57.083Z,101015.47
2022-09-20T03:14:51.310Z,101017.19
2022-09-20T03:17:27.497Z,101012.13
2022-09-20T03:20:08.706Z,101012.63
2022-09-20T03:22:58.281Z,101010.09
2022-09-20T03:25:48.129Z,101006.91
2022-09-20T03:28:28.245Z,101009.63
2022-09-20T03:31:00.992Z,101019.91
2022-09-20T03:33:39.487Z,101009.25
2022-09-20T03:36:36.905Z,101021.28
2022-09-20T03:39:31.271Z,101017.53
2022-09-20T03:42:20.156Z,101019.69
2022-09-20T03:45:00.967Z,101012.72
2022-09-20T03:47:33.469Z,101015.75
2022-09-20T03:50:28.887Z,101018.09
2022-09-20T03:53:12.688Z,101015.81
2022-09-20T03:55:59.706Z,101019.38
2022-09-20T03:58:49.390Z,101019.00
2022-09-20T04:01:18.821Z,101015.97
2022-09-20T04:04:23.727Z,100993.13
2022-09-20T04:07:02.345Z,101009.19
2022-09-20T04:09:43.831Z,101007.25
2022-09-20T04:12:28.394Z,101008.91
2022-09-20T04:15:07.485Z,101019.78
2022-09-20T04:17:57.213Z,101008.69
2022-09-20T04:20:38.885Z,101013.50
2022-09-20T04:23:36.092Z,101023.31
2022-09-20T04:26:03.565Z,101027.63
2022-09-20T04:28:32.977Z,101030.03
2022-09-20T04:31:35.002Z,101037.78
2022-09-20T04:34:04.920Z,101035.78
2022-09-20T04:36:34.361Z,101052.72
2022-09-20T04:39:22.613Z,101052.72
2022-09-20T04:42:18.086Z,101042.72
2022-09-20T04:45:09.382Z,101051.66
2022-09-20T04:47:35.899Z,101059.09
2022-09-20T04:50:20.798Z,101050.91
2022-09-20T04:53:15.634Z,101063.81
2022-09-20T04:55:56.135Z,101063.97
2022-09-20T04:58:57.195Z,101058.41
2022-09-20T05:01:35.998Z,101065.34
2022-09-20T05:04:33.286Z,101070.09
2022-09-20T05:07:30.427Z,101069.28
2022-09-20T05:10:43.877Z,101070.97
2022-09-20T05:13:35.221Z,101081.66
2022-09-20T05:16:09.355Z,101072.03
2022-09-20T05:18:54.508Z,101079.81
2022-09-20T05:21:55.049Z,101092.69
2022-09-20T05:24:56.535Z,101094.41
2022-09-20T05:28:02.897Z,101089.28
2022-09-20T05:30:45.642Z,101086.59
2022-09-20T05:33:40.076Z,101102.84
2022-09-20T05:36:13.818Z,101104.19
2022-09-20T05:38:49.092Z,101109.59
2022-09-20T05:41:18.995Z,101109.59
2022-09-20T05:44:37.015Z,101110.97
2022-09-20T05:47:34.849Z,101103.03
2022-09-20T05:50:16.064Z,101115.56
2022-09-20T05:52:54.509Z,101127.28
2022-09-20T05:55:42.632Z,101127.31
2022-09-20T05:58:46.996Z,101124.69
2022-09-20T06:01:25.582Z,101129.06
2022-09-20T06:04:08.872Z,101133.34
2022-09-20T06:06:47.638Z,101138.50
2022-09-20T06:09:20.240Z,101142.88
2022-09-20T06:12:05.059Z,101143.50
2022-09-20T06:14:31.608Z,101147.09
2022-09-20T06:17:11.893Z,101142.28
2022-09-20T06:19:49.477Z,101153.66
2022-09-20T06:22:40.420Z,101148.97
2022-09-20T06:25:10.047Z,101147.25
2022-09-20T06:27:54.623Z,101150.16
2022-09-20T06:30:26.510Z,101150.50
2022-09-20T11:28:23.091Z,101099.59
2022-09-20T11:31:04.344Z,101092.75
2022-09-20T11:33:52.830Z,101099.72
2022-09-20T11:36:39.379Z,101081.38
2022-09-20T11:39:13.381Z,101094.25
2022-09-20T11:41:40.920Z,101094.66
2022-09-20T11:44:12.693Z,101094.78
2022-09-20T11:46:52.344Z,101095.25
2022-09-20T11:49:27.001Z,101087.03
2022-09-20T11:52:13.680Z,101086.81
2022-09-20T11:55:18.893Z,101077.13
2022-09-20T11:57:46.754Z,101067.50
2022-09-20T12:00:13.426Z,101069.81
2022-09-20T12:02:54.010Z,101065.56
2022-09-20T12:05:41.588Z,101076.63
2022-09-20T12:08:21.989Z,101070.97
2022-09-20T12:10:59.112Z,101068.81
2022-09-20T12:13:27.785Z,101053.88
2022-09-20T12:16:12.882Z,101057.06
2022-09-20T12:18:48.280Z,101060.94
2022-09-20T12:21:17.647Z,101055.44
2022-09-20T12:23:53.627Z,101053.78
2022-09-20T12:26:23.243Z,101056.69
2022-09-20T12:29:01.271Z,101047.88
2022-09-20T12:31:33.789Z,101051.41
2022-09-20T12:34:09.995Z,101042.50
2022-09-20T12:36:44.848Z,101036.44
2022-09-20T12:39:11.249Z,101044.03
2022-09-20T12:42:03.059Z,101047.47
2022-09-20T12:44:37.748Z,101042.53
2022-09-20T12:47:15.864Z,101038.38
2022-09-20T12:50:04.112Z,101034.88
2022-09-20T12:52:58.010Z,101027.94
2022-09-20T12:55:30.312Z,101028.31
2022-09-20T12:58:01.977Z,101020.53
2022-09-20T13:00:34.484Z,101017.44
2022-09-20T13:03:01.884Z,101026.91
2022-09-20T13:05:38.194Z,101022.00
2022-09-20T13:08:10.465Z,101013.81
2022-09-20T13:10:45.044Z,101005.78
2022-09-20T13:13:19.440Z,101008.16
2022-09-20T13:15:52.394Z,101016.13
2022-09-20T13:18:20.136Z,101010.97
2022-09-20T13:20:47.048Z,100992.28
2022-09-20T13:23:21.705Z,100994.34
2022-09-20T13:25:49.717Z,100989.38
2022-09-20T13:28:28.830Z,100994.38
2022-09-20T13:31:20.356Z,100996.94
2022-09-20T13:33:47.688Z,100992.34
2022-09-20T13:36:14.680Z,100987.84
2022-09-20T13:38:41.597Z,100984.31
2022-09-20T13:41:12.949Z,100978.94
2022-09-20T13:43:50.696Z,100980.44
2022-09-20T13:46:29.196Z,100980.72
2022-09-20T13:49:11.065Z,100980.03
2022-09-20T13:51:37.627Z,100971.06
2022-09-20T13:54:30.457Z,100967.38
2022-09-20T13:57:01.688Z,100957.66
2022-09-20T13:59:42.204Z,100960.69
2022-09-20T14:02:24.014Z,100965.66
2022-09-20T14:04:54.550Z,100953.50
2022-09-20T14:07:25.748Z,100961.94
2022-09-20T14:09:54.077Z,100938.97
2022-09-20T14:12:21.769Z,100954.72
2022-09-20T14:14:49.807Z,100944.22
2022-09-20T14:17:21.860Z,100959.81
2022-09-20T14:19:51.791Z,100937.66
2022-09-20T14:22:27.106Z,100934.53
2022-09-20T14:25:13.859Z,100952.00
2022-09-20T14:27:40.787Z,100945.63
2022-09-20T14:30:27.600Z,100940.09
2022-09-20T14:32:55.996Z,100932.69
2022-09-20T14:35:23.169Z,100943.41
2022-09-20T14:37:57.254Z,100937.34
2022-09-20T14:40:23.897Z,100937.25
2022-09-20T14:42:54.651Z,100938.22
2022-09-20T14:45:24.560Z,100932.28
2022-09-20T14:48:10.669Z,100923.53
2022-09-20T14:50:39.425Z,100928.56
2022-09-20T14:53:21.929Z,100931.28
2022-09-20T14:55:59.927Z,100931.97
2022-09-20T14:58:27.209Z,100924.22
2022-09-20T15:01:13.525Z,100916.75
2022-09-20T15:03:41.870Z,100919.53
2022-09-20T15:06:13.402Z,100936.63
2022-09-20T15:08:45.479Z,100925.75
2022-09-20T15:11:18.422Z,100923.50
2022-09-20T15:13:45.504Z,100916.00
2022-09-20T15:16:14.510Z,100924.38
2022-09-20T15:18:43.158Z,100918.03
2022-09-20T15:21:12.412Z,100923.31
2022-09-20T15:23:39.951Z,100921.63
2022-09-20T15:26:08.826Z,100911.63
2022-09-20T15:28:35.486Z,100910.94
2022-09-20T15:31:02.398Z,100911.53
2022-09-20T15:33:30.884Z,100918.31
2022-09-20T15:35:57.362Z,100921.47
2022-09-20T15:38:26.747Z,100913.22
2022-09-20T15:40:53.718Z,100912.75
2022-09-20T15:43:24.153Z,100917.47
2022-09-20T15:45:56.210Z,100917.75
2022-09-20T15:48:25.658Z,100914.00
2022-09-20T15:51:04.221Z,100912.66
2022-09-20T15:53:34.145Z,100904.16
2022-09-20T15:56:02.604Z,100917.88
2022-09-20T15:58:36.658Z,100915.25
2022-09-20T16:01:08.292Z,100914.25
2022-09-20T16:03:36.487Z,100907.16
2022-09-20T16:06:08.233Z,100916.56
2022-09-20T16:08:43.817Z,100910.22
2022-09-20T16:11:13.675Z,100907.72
2022-09-20T16:13:40.696Z,100891.97
2022-09-20T16:16:10.005Z,100904.78
2022-09-20T16:18:55.551Z,100908.53
2022-09-20T16:21:22.255Z,100907.59
2022-09-20T16:23:51.570Z,100902.38
2022-09-20T16:26:19.669Z,100905.59
2022-09-20T16:28:47.643Z,100908.19
2022-09-20T16:31:43.665Z,100911.78
2022-09-20T16:34:13.250Z,100903.00
2022-09-20T16:36:43.349Z,100893.19
2022-09-20T16:39:10.591Z,100907.06
2022-09-20T16:41:39.081Z,100908.56
2022-09-20T16:44:05.454Z,100912.81
2022-09-20T16:46:33.409Z,100909.91
2022-09-20T16:49:00.825Z,100902.16
2022-09-20T16:51:33.281Z,100915.81
2022-09-20T16:54:09.555Z,100916.59
2022-09-20T16:56:36.131Z,100909.97
2022-09-20T16:59:04.816Z,100899.94
2022-09-20T17:01:32.031Z,100914.47
2022-09-20T17:03:59.272Z,100915.75
2022-09-20T17:06:27.279Z,100929.25
2022-09-20T17:08:58.861Z,100924.16
2022-09-20T17:11:28.534Z,100927.09
2022-09-20T17:13:56.008Z,100929.44
2022-09-20T17:16:34.201Z,100931.75
2022-09-20T17:19:03.019Z,100935.53
2022-09-20T17:21:30.241Z,100940.59
2022-09-20T17:23:59.567Z,100939.31
2022-09-20T17:26:40.408Z,100945.19
2022-09-20T17:29:09.863Z,100944.31
2022-09-20T17:31:39.108Z,100945.19
2022-09-20T17:34:09.516Z,100951.72
2022-09-20T17:36:46.433Z,100955.06
2022-09-20T17:39:14.535Z,100959.91
2022-09-20T17:41:45.980Z,100959.47
2022-09-20T17:44:13.451Z,100965.94
2022-09-20T17:46:42.452Z,100963.19
2022-09-20T17:49:16.903Z,100966.28
2022-09-20T17:51:45.841Z,100973.78
2022-09-20T17:54:14.007Z,100971.84
2022-09-20T17:56:43.658Z,100980.84
2022-09-20T17:59:11.790Z,100982.28
2022-09-20T18:01:38.845Z,100983.09
2022-09-20T18:04:06.788Z,100977.00
2022-09-20T18:06:44.928Z,100988.56
2022-09-20T18:09:16.527Z,100995.25
2022-09-20T18:11:46.372Z,100991.63
2022-09-20T18:14:13.460Z,100996.22
2022-09-20T18:16:40.711Z,100994.66
2022-09-20T18:19:08.354Z,100993.28
2022-09-20T18:21:36.617Z,101010.06
2022-09-20T18:24:06.302Z,101005.78
2022-09-20T18:26:33.091Z,101003.16
2022-09-20T18:29:09.491Z,101013.53
2022-09-20T18:31:43.045Z,101012.66
2022-09-20T18:34:12.167Z,101018.25
2022-09-20T18:36:39.886Z,101020.53
2022-09-20T18:39:06.702Z,101024.66
2022-09-20T18:41:38.115Z,101023.53
2022-09-20T18:44:07.549Z,101025.38
2022-09-20T18:46:37.766Z,101027.16
2022-09-20T18:49:07.899Z,101029.25
2022-09-20T18:51:39.196Z,101041.50
2022-09-20T18:54:06.592Z,101041.59
2022-09-20T18:56:56.540Z,101052.66
2022-09-20T18:59:25.197Z,101061.44
2022-09-20T19:01:55.028Z,101058.22
2022-09-20T19:04:46.160Z,101056.69
2022-09-20T19:07:27.979Z,101063.50
2022-09-20T19:10:17.112Z,101071.81
2022-09-20T19:13:08.951Z,101077.28
2022-09-20T19:15:53.885Z,101065.66
2022-09-20T19:18:58.669Z,101073.88
2022-09-20T19:21:40.423Z,101075.50
2022-09-20T19:24:31.615Z,101084.72
2022-09-20T19:26:58.452Z,101086.00
2022-09-20T19:29:27.207Z,101094.72
2022-09-20T19:31:55.548Z,101091.16
2022-09-20T19:34:25.360Z,101094.25
2022-09-20T19:37:22.801Z,101089.59
2022-09-20T19:40:14.644Z,101099.50
2022-09-20T19:43:07.459Z,101099.69
2022-09-20T19:46:13.353Z,101105.34
2022-09-20T19:49:02.422Z,101100.78
2022-09-20T19:51:34.977Z,101114.28
2022-09-20T19:54:01.694Z,101107.03
2022-09-20T19:56:34.531Z,101106.94
2022-09-20T19:59:01.269Z,101110.91
2022-09-20T20:01:28.106Z,101118.41
2022-09-20T20:03:55.844Z,101124.69
2022-09-20T20:06:36.720Z,101112.78
2022-09-20T20:09:29.558Z,101121.91
2022-09-20T20:12:35.595Z,101117.44
2022-09-20T20:15:28.517Z,101114.16
2022-09-20T20:18:01.699Z,101124.19
2022-09-20T20:20:49.285Z,101126.63
2022-09-20T20:23:27.926Z,101137.84
2022-09-20T20:26:02.825Z,101134.00
2022-09-20T20:28:30.137Z,101135.72
2022-09-20T20:31:00.124Z,101143.06
2022-09-20T20:33:27.043Z,101140.72
2022-09-20T20:35:58.398Z,101147.25
2022-09-20T20:38:26.455Z,101135.25
2022-09-20T20:41:05.675Z,101151.22
2022-09-20T20:43:37.358Z,101157.50
2022-09-20T20:46:05.561Z,101157.34
2022-09-20T20:48:32.700Z,101159.03
2022-09-20T20:51:04.115Z,101167.56
2022-09-20T20:53:35.967Z,101158.44
2022-09-20T20:56:05.659Z,101166.78
2022-09-20T20:58:33.087Z,101151.66
2022-09-20T21:01:30.264Z,101167.41
2022-09-20T21:03:57.705Z,101173.50
2022-09-20T21:06:28.767Z,101171.75
2022-09-20T21:08:55.353Z,101164.31
2022-09-20T21:11:30.065Z,101171.75
2022-09-20T21:14:00.237Z,101174.44
2022-09-20T21:16:29.706Z,101177.44
2022-09-20T21:18:57.279Z,101174.38
2022-09-20T21:21:27.985Z,101182.16
2022-09-20T21:24:00.779Z,101175.78
2022-09-20T21:26:32.001Z,101175.41
2022-09-20T21:29:00.644Z,101173.88
2022-09-20T21:31:32.759Z,101184.88
2022-09-20T21:33:59.998Z,101183.53
2022-09-20T21:36:28.643Z,101187.59
2022-09-20T21:38:55.877Z,101190.69
2022-09-20T21:41:24.881Z,101185.78
2022-09-20T21:43:53.841Z,101195.97
2022-09-20T21:46:29.118Z,101197.50
2022-09-20T21:49:00.718Z,101191.94
2022-09-20T21:51:31.147Z,101204.63
2022-09-20T21:53:59.547Z,101196.78
2022-09-20T21:56:27.681Z,101207.28
2022-09-20T21:58:55.016Z,101201.84
2022-09-20T22:01:24.023Z,101210.50
2022-09-20T22:03:53.909Z,101208.28
2022-09-20T22:06:22.388Z,101215.06
2022-09-20T22:09:02.945Z,101204.00
2022-09-20T22:11:31.900Z,101194.69
2022-09-20T22:13:59.147Z,101211.06
2022-09-20T22:16:28.913Z,101215.50
2022-09-20T22:18:56.253Z,101214.44
2022-09-20T22:21:35.299Z,101213.78
2022-09-20T22:24:05.705Z,101211.25
2022-09-20T22:27:03.296Z,101214.34
2022-09-20T22:29:29.809Z,101212.28
2022-09-20T22:31:56.343Z,101222.13
2022-09-20T22:34:24.238Z,101209.25
2022-09-20T22:36:52.044Z,101213.81
2022-09-20T22:39:18.614Z,101220.50
2022-09-20T22:41:47.739Z,101206.38
2022-09-20T22:44:14.272Z,101215.16
2022-09-20T22:46:40.807Z,101222.78
2022-09-20T22:49:09.030Z,101214.09
2022-09-20T22:51:36.585Z,101221.72
2022-09-20T22:54:11.502Z,101223.78
2022-09-20T22:56:39.596Z,101219.84
2022-09-20T22:59:08.718Z,101220.69
2022-09-20T23:01:37.859Z,101225.66
2022-09-20T23:04:08.099Z,101223.84
2022-09-20T23:06:38.387Z,101221.84
2022-09-20T23:09:07.905Z,101215.25
2022-09-20T23:11:35.564Z,101219.53
2022-09-20T23:14:05.059Z,101228.88
2022-09-20T23:17:27.798Z,101223.44
2022-09-20T23:19:54.287Z,101214.63
2022-09-20T23:22:20.769Z,101219.59
2022-09-20T23:24:47.264Z,101219.25
2022-09-20T23:27:15.421Z,101221.25
2022-09-20T23:29:41.933Z,101225.97
2022-09-20T23:32:08.399Z,101220.84
2022-09-20T23:34:34.883Z,101218.78
2022-09-20T23:37:01.372Z,101227.59
2022-09-20T23:39:28.036Z,101223.03
2022-09-20T23:41:54.504Z,101227.28
2022-09-20T23:44:21.186Z,101223.50
2022-09-20T23:46:47.708Z,101222.31
2022-09-20T23:49:14.197Z,101227.22
2022-09-20T23:51:40.665Z,101227.50
2022-09-20T23:54:07.311Z,101230.19
2022-09-20T23:56:33.979Z,101230.31
2022-09-20T23:59:00.523Z,101231.47
